Time;durP1;ratioP1;P1;durP2;ratioP2;P2;SDS_P1;SDS_P2;PMS_P1;PMS_P2;Temp;Humidity;BMP_temperature;BMP_pressure;BME280_temperature;BME280_humidity;BME280_pressure;Samples;Min_cycle;Max_cycle;Signal;HPM_P1;HPM_P2
2021/04/21 00:02:21;;;;;;;11.53;5.83;;;12.20;77.10;;;;;;1836920;76;21117;-67
2021/04/21 00:04:51;;;;;;;11.95;6.42;;;12.10;77.10;;;;;;1833498;76;21093;-66
2021/04/21 00:07:20;;;;;;;9.38;6.08;;;12.10;78.00;;;;;;1830509;77;21068;-66
2021/04/21 00:09:49;;;;;;;9.13;6.15;;;12.10;78.30;;;;;;1837956;76;21061;-65
2021/04/21 00:12:18;;;;;;;15.88;6.62;;;12.10;78.30;;;;;;1832227;77;21092;-66
2021/04/21 00:14:47;;;;;;;8.98;5.87;;;12.00;78.00;;;;;;1832946;77;21388;-67
2021/04/21 00:17:14;;;;;;;11.05;6.70;;;12.00;77.90;;;;;;1833883;76;21107;-67
2021/04/21 00:19:44;;;;;;;9.58;6.40;;;12.00;78.80;;;;;;1833631;76;21120;-67
2021/04/21 00:22:13;;;;;;;11.18;6.00;;;11.90;79.00;;;;;;1834805;77;21562;-66
2021/04/21 00:24:42;;;;;;;9.63;6.30;;;11.90;79.40;;;;;;1832376;76;21604;-67
2021/04/21 00:27:10;;;;;;;10.08;6.40;;;11.80;79.60;;;;;;1832839;77;21144;-66
2021/04/21 00:29:40;;;;;;;12.00;6.83;;;11.80;79.20;;;;;;1830524;76;21088;-66
2021/04/21 00:32:09;;;;;;;10.20;6.70;;;11.90;80.20;;;;;;1835108;76;21182;-66
2021/04/21 00:34:38;;;;;;;12.03;6.53;;;11.80;80.30;;;;;;1832417;77;21132;-66
2021/04/21 00:37:07;;;;;;;8.40;6.17;;;11.80;80.30;;;;;;1830784;77;21569;-66
2021/04/21 00:39:35;;;;;;;8.20;6.03;;;11.70;80.20;;;;;;1835403;76;21058;-65
2021/04/21 00:42:17;;;;;;;8.90;6.25;;;11.70;80.20;;;;;;1834622;76;21497;-67
2021/04/21 00:44:57;;;;;;;9.43;6.50;;;11.70;80.10;;;;;;1837316;76;21162;-67
2021/04/21 00:47:51;;;;;;;13.80;6.45;;;11.70;81.10;;;;;;1836271;76;21170;-66
2021/04/21 00:50:21;;;;;;;13.70;6.67;;;11.60;81.30;;;;;;1829018;77;21146;-66
2021/04/21 00:53:10;;;;;;;12.15;6.58;;;11.70;80.70;;;;;;1836657;76;21605;-66
2021/04/21 00:55:56;;;;;;;8.85;6.65;;;11.70;80.20;;;;;;1832340;76;21177;-66
2021/04/21 00:58:46;;;;;;;10.00;6.80;;;11.60;80.00;;;;;;1794870;77;21156;-66
2021/04/21 01:01:15;;;;;;;11.30;6.40;;;11.60;80.20;;;;;;1833231;76;21459;-66
2021/04/21 01:04:02;;;;;;;8.55;6.33;;;11.50;79.80;;;;;;1830533;77;21089;-65
2021/04/21 01:06:41;;;;;;;11.83;6.67;;;11.50;79.70;;;;;;1803551;78;21087;-65
2021/04/21 01:09:11;;;;;;;10.43;6.37;;;11.40;80.00;;;;;;1813893;77;21184;-65
2021/04/21 01:11:41;;;;;;;12.33;7.00;;;11.40;80.60;;;;;;1810812;77;21642;-65
2021/04/21 01:14:15;;;;;;;12.43;6.45;;;11.40;80.70;;;;;;1825827;77;21135;-66
2021/04/21 01:16:44;;;;;;;13.20;6.78;;;11.30;80.60;;;;;;1853435;75;21183;-66
2021/04/21 01:19:38;;;;;;;15.90;7.05;;;11.30;81.40;;;;;;1855891;75;21098;-66
2021/04/21 01:22:40;;;;;;;13.95;7.47;;;11.20;83.30;;;;;;1849800;75;21168;-66
2021/04/21 01:25:10;;;;;;;10.93;6.90;;;11.10;82.40;;;;;;1854106;75;21628;-66
2021/04/21 01:27:56;;;;;;;9.58;6.97;;;11.00;82.50;;;;;;1851698;75;21162;-66
2021/04/21 01:30:25;;;;;;;12.75;6.97;;;11.00;82.80;;;;;;1852713;75;21039;-67
2021/04/21 01:32:56;;;;;;;12.85;6.90;;;11.00;82.80;;;;;;1853753;75;21517;-65
2021/04/21 01:35:25;;;;;;;11.70;6.97;;;11.00;83.00;;;;;;1852092;75;21090;-64
2021/04/21 01:37:56;;;;;;;14.43;7.03;;;10.90;83.40;;;;;;1859455;76;21510;-65
2021/04/21 01:40:29;;;;;;;14.93;7.22;;;10.90;83.80;;;;;;1895398;74;21176;-65
2021/04/21 01:43:00;;;;;;;11.05;7.00;;;10.90;84.00;;;;;;1894383;74;21094;-67
2021/04/21 01:45:31;;;;;;;10.93;6.03;;;10.90;84.00;;;;;;1890893;75;21383;-66
2021/04/21 01:48:01;;;;;;;11.25;6.40;;;10.90;83.80;;;;;;1890475;74;21555;-66
2021/04/21 01:50:28;;;;;;;10.88;6.30;;;10.90;83.80;;;;;;1896129;74;21382;-66
2021/04/21 01:53:21;;;;;;;11.10;6.20;;;10.80;83.70;;;;;;1894903;74;21035;-66
2021/04/21 01:55:49;;;;;;;;;;;10.80;83.90;;;;;;1896621;75;21137;-65
2021/04/21 01:58:38;;;;;;;14.53;6.92;;;10.80;83.90;;;;;;1892440;75;20178;-66
2021/04/21 02:01:26;;;;;;;10.60;7.08;;;10.70;84.10;;;;;;1826802;78;21199;-66
2021/04/21 02:04:05;;;;;;;12.73;6.40;;;10.70;83.90;;;;;;1859398;76;21140;-65
2021/04/21 02:06:39;;;;;;;11.33;6.58;;;10.70;84.00;;;;;;1889599;74;21263;-65
2021/04/21 02:09:36;;;;;;;14.13;7.37;;;10.70;85.10;;;;;;1896331;74;21141;-65
2021/04/21 02:12:23;;;;;;;10.10;6.40;;;10.60;86.00;;;;;;1888799;75;21160;-66
2021/04/21 02:14:59;;;;;;;9.53;6.05;;;10.40;85.90;;;;;;1888508;74;21409;-66
2021/04/21 02:17:38;;;;;;;14.68;6.85;;;10.40;86.00;;;;;;1892179;74;21579;-66
2021/04/21 02:20:15;;;;;;;14.58;7.20;;;10.30;86.60;;;;;;1886118;75;21046;-66
2021/04/21 02:23:02;;;;;;;10.00;7.00;;;10.30;86.10;;;;;;1894474;75;21034;-66
2021/04/21 02:25:52;;;;;;;11.25;6.60;;;10.40;86.20;;;;;;1886477;75;21576;-66
2021/04/21 02:28:30;;;;;;;9.43;5.92;;;10.40;86.00;;;;;;1823804;78;21435;-65
2021/04/21 02:31:22;;;;;;;7.97;6.22;;;10.40;86.20;;;;;;1858839;76;21080;-66
2021/04/21 02:34:02;;;;;;;10.25;7.03;;;10.40;86.10;;;;;;1894466;74;21536;-67
2021/04/21 02:37:01;;;;;;;8.18;5.85;;;10.30;86.50;;;;;;1889953;74;21110;-66
2021/04/21 02:39:32;;;;;;;11.30;6.72;;;10.20;87.00;;;;;;1897271;74;21106;-66
2021/04/21 02:42:21;;;;;;;11.60;6.70;;;10.20;87.40;;;;;;1843398;75;21059;-67
2021/04/21 02:45:10;;;;;;;8.30;6.25;;;10.10;87.40;;;;;;1885685;74;21165;-66
2021/04/21 02:47:46;;;;;;;10.93;6.75;;;10.10;87.50;;;;;;1896454;74;21158;-66
2021/04/21 02:50:38;;;;;;;12.13;6.08;;;10.10;88.30;;;;;;1890854;74;21132;-66
2021/04/21 02:53:15;;;;;;;10.72;5.92;;;10.20;87.60;;;;;;1891225;74;21180;-66
2021/04/21 02:56:15;;;;;;;11.30;6.53;;;10.00;87.80;;;;;;1890646;74;21181;-65
2021/04/21 02:58:46;;;;;;;8.95;6.67;;;10.00;88.00;;;;;;1887581;75;21113;-67
2021/04/21 03:01:50;;;;;;;13.98;6.30;;;10.00;88.20;;;;;;1825855;76;21117;-67
2021/04/21 03:04:29;;;;;;;10.80;6.12;;;10.00;88.20;;;;;;1858946;76;21255;-66
2021/04/21 03:06:59;;;;;;;14.68;5.92;;;9.90;88.50;;;;;;1891564;74;21658;-65
2021/04/21 03:09:29;;;;;;;11.05;6.80;;;9.90;88.70;;;;;;1903634;74;21058;-66
2021/04/21 03:11:59;;;;;;;16.95;7.00;;;9.90;88.70;;;;;;1896287;74;21063;-66
2021/04/21 03:14:29;;;;;;;9.65;6.22;;;9.90;88.70;;;;;;1899065;74;21137;-66
2021/04/21 03:16:59;;;;;;;10.13;6.45;;;9.80;88.80;;;;;;1894498;74;21114;-66
2021/04/21 03:19:36;;;;;;;11.30;6.45;;;9.90;88.70;;;;;;1900944;74;21184;-66
2021/04/21 03:22:13;;;;;;;10.25;6.17;;;9.90;88.60;;;;;;1885048;74;21236;-64
2021/04/21 03:24:36;;;;;;;;;;;9.80;89.60;;;;;;1896245;74;21192;-66
2021/04/21 03:27:05;;;;;;;9.93;6.05;;;9.80;88.90;;;;;;1899961;74;20110;-66
2021/04/21 03:29:39;;;;;;;11.55;7.00;;;9.80;89.40;;;;;;1899309;74;21086;-66
2021/04/21 03:32:15;;;;;;;8.83;6.33;;;9.80;89.60;;;;;;1905090;74;21034;-66
2021/04/21 03:34:45;;;;;;;11.20;6.45;;;9.70;89.10;;;;;;1891659;74;21074;-66
2021/04/21 03:37:32;;;;;;;8.35;6.20;;;9.70;89.30;;;;;;1855579;75;21117;-66
2021/04/21 03:40:00;;;;;;;11.85;6.87;;;9.80;88.80;;;;;;1829933;78;21532;-66
2021/04/21 03:42:28;;;;;;;12.18;6.95;;;9.70;89.10;;;;;;1860384;76;21099;-65
2021/04/21 03:44:55;;;;;;;12.93;6.62;;;9.70;88.90;;;;;;1889560;74;21078;-66
2021/04/21 03:47:23;;;;;;;11.40;6.35;;;9.70;88.80;;;;;;1893184;75;21090;-64
2021/04/21 03:49:52;;;;;;;10.93;6.05;;;9.70;88.90;;;;;;1890632;75;21389;-65
2021/04/21 03:52:22;;;;;;;15.05;6.97;;;9.70;88.80;;;;;;1897172;74;21104;-64
2021/04/21 03:54:52;;;;;;;8.43;6.17;;;9.70;89.40;;;;;;1902442;74;21117;-66
2021/04/21 03:57:22;;;;;;;9.35;6.60;;;9.70;89.40;;;;;;1895248;75;21071;-66
2021/04/21 03:59:52;;;;;;;12.47;6.58;;;9.70;89.80;;;;;;1890060;74;21493;-67
2021/04/21 04:02:22;;;;;;;10.60;6.65;;;9.60;89.70;;;;;;1894358;74;21160;-66
2021/04/21 04:04:53;;;;;;;16.62;6.75;;;9.60;90.10;;;;;;1888471;74;21772;-66
2021/04/21 04:07:24;;;;;;;12.33;6.25;;;9.60;90.30;;;;;;1891283;74;21052;-67
2021/04/21 04:09:51;;;;;;;11.55;6.58;;;9.50;90.50;;;;;;1891046;74;21191;-64
2021/04/21 04:12:22;;;;;;;10.60;6.65;;;9.50;90.70;;;;;;1892850;75;21074;-65
2021/04/21 04:14:51;;;;;;;12.15;7.10;;;9.60;90.60;;;;;;1894278;75;21097;-65
2021/04/21 04:17:21;;;;;;;14.13;7.58;;;9.70;90.70;;;;;;1893852;74;21058;-66
2021/04/21 04:19:50;;;;;;;16.67;7.67;;;9.60;90.70;;;;;;1890964;75;21079;-66
2021/04/21 04:22:19;;;;;;;13.22;7.60;;;9.70;90.70;;;;;;1897108;74;21611;-65
2021/04/21 04:24:53;;;;;;;13.43;8.90;;;9.70;90.70;;;;;;1892776;74;21113;-66
2021/04/21 04:27:23;;;;;;;14.35;8.50;;;9.70;90.70;;;;;;1893965;74;21541;-66
2021/04/21 04:29:51;;;;;;;12.58;8.75;;;9.80;90.80;;;;;;1886104;74;21098;-65
2021/04/21 04:32:21;;;;;;;14.03;8.40;;;9.80;90.90;;;;;;1893474;74;21133;-66
2021/04/21 04:34:51;;;;;;;16.60;8.75;;;9.70;91.00;;;;;;1890355;75;21120;-66
2021/04/21 04:37:21;;;;;;;18.95;8.73;;;9.70;91.20;;;;;;1897850;74;21118;-65
2021/04/21 04:39:49;;;;;;;12.80;8.48;;;9.70;91.30;;;;;;1822125;77;21194;-65
2021/04/21 04:42:17;;;;;;;13.32;8.90;;;9.60;91.70;;;;;;1891998;74;21090;-65
2021/04/21 04:44:48;;;;;;;15.48;9.00;;;9.60;91.50;;;;;;1893907;75;21110;-66
2021/04/21 04:47:33;;;;;;;14.80;9.28;;;9.70;91.60;;;;;;1893433;74;21120;-66
2021/04/21 04:50:09;;;;;;;16.90;9.63;;;9.70;91.50;;;;;;1893444;74;21710;-66
2021/04/21 04:52:40;;;;;;;13.00;9.83;;;9.60;91.80;;;;;;1886429;74;21625;-66
2021/04/21 04:55:10;;;;;;;14.60;9.35;;;9.70;92.10;;;;;;1894222;75;22331;-66
2021/04/21 04:57:40;;;;;;;15.90;9.85;;;9.70;92.00;;;;;;1887159;74;21148;-68
2021/04/21 05:00:10;;;;;;;13.38;9.15;;;9.70;92.00;;;;;;1894233;74;21084;-66
2021/04/21 05:03:02;;;;;;;15.35;9.90;;;9.70;92.00;;;;;;1895380;74;21033;-66
2021/04/21 05:05:30;;;;;;;15.05;9.80;;;9.80;91.90;;;;;;1890662;74;21059;-67
2021/04/21 05:08:04;;;;;;;18.82;10.32;;;9.90;92.10;;;;;;1895379;74;21039;-66
2021/04/21 05:10:34;;;;;;;16.52;9.85;;;9.90;92.10;;;;;;1891044;74;21030;-66
2021/04/21 05:13:06;;;;;;;17.10;10.25;;;10.00;92.10;;;;;;1895168;74;21171;-66
2021/04/21 05:15:39;;;;;;;19.42;11.03;;;10.10;92.10;;;;;;1898219;74;21655;-66
2021/04/21 05:18:25;;;;;;;16.80;10.68;;;10.10;92.30;;;;;;1898115;74;21038;-66
2021/04/21 05:21:28;;;;;;;17.07;10.70;;;10.10;92.30;;;;;;1890687;74;21027;-66
2021/04/21 05:24:22;;;;;;;17.12;10.95;;;10.20;92.50;;;;;;1896460;74;21082;-67
2021/04/21 05:27:10;;;;;;;19.35;10.13;;;10.30;92.60;;;;;;1898428;74;21835;-67
2021/04/21 05:29:57;;;;;;;15.55;10.15;;;10.40;92.70;;;;;;1892051;74;21133;-66
2021/04/21 05:32:44;;;;;;;16.48;10.58;;;10.40;93.00;;;;;;1899139;74;21117;-66
2021/04/21 05:35:36;;;;;;;18.40;11.45;;;10.40;92.90;;;;;;1891245;74;21110;-66
2021/04/21 05:38:27;;;;;;;16.73;11.50;;;10.50;92.90;;;;;;1892931;74;21109;-66
2021/04/21 05:41:07;;;;;;;17.45;11.30;;;10.60;92.70;;;;;;1895717;74;21114;-66
2021/04/21 05:43:46;;;;;;;21.15;11.90;;;10.70;92.70;;;;;;1890394;74;21098;-65
2021/04/21 05:46:35;;;;;;;19.65;11.15;;;10.80;92.60;;;;;;1895478;74;21098;-66
2021/04/21 05:49:29;;;;;;;16.32;10.70;;;10.80;92.60;;;;;;1825879;76;21682;-66
2021/04/21 05:51:59;;;;;;;19.10;12.03;;;11.00;93.10;;;;;;1901020;74;21459;-67
2021/04/21 05:54:36;;;;;;;21.40;11.48;;;11.10;93.40;;;;;;1891316;74;21200;-66
2021/04/21 05:57:27;;;;;;;20.95;12.33;;;11.20;93.50;;;;;;1896416;74;21587;-66
2021/04/21 06:00:13;;;;;;;20.10;12.17;;;11.30;93.20;;;;;;1891498;74;21229;-64
2021/04/21 06:02:42;;;;;;;22.32;12.98;;;11.40;93.20;;;;;;1900967;74;21140;-66
2021/04/21 06:05:13;;;;;;;23.52;13.32;;;11.50;93.20;;;;;;1894965;74;21162;-67
2021/04/21 06:07:44;;;;;;;20.37;13.18;;;11.60;93.20;;;;;;1891295;74;21633;-66
2021/04/21 06:10:30;;;;;;;18.75;12.95;;;11.70;93.00;;;;;;1896621;74;21096;-66
2021/04/21 06:13:04;;;;;;;18.95;12.05;;;11.80;92.80;;;;;;1895422;74;21094;-65
2021/04/21 06:15:32;;;;;;;28.00;12.75;;;11.90;92.70;;;;;;1891381;74;21188;-66
2021/04/21 06:18:02;;;;;;;18.35;11.45;;;12.00;92.60;;;;;;1895910;74;21126;-66
2021/04/21 06:20:32;;;;;;;17.30;10.65;;;12.10;92.30;;;;;;1893984;74;21175;-66
2021/04/21 06:23:14;;;;;;;14.87;9.93;;;12.20;92.20;;;;;;1891332;74;21149;-64
2021/04/21 06:25:44;;;;;;;17.20;10.10;;;12.30;91.70;;;;;;1894054;74;21171;-65
2021/04/21 06:28:14;;;;;;;18.17;9.08;;;12.40;91.80;;;;;;1895513;74;21122;-66
2021/04/21 06:30:43;;;;;;;16.85;9.75;;;12.40;90.80;;;;;;1902080;74;21066;-64
2021/04/21 06:33:12;;;;;;;18.52;9.48;;;12.50;91.00;;;;;;1897455;74;21015;-66
2021/04/21 06:35:41;;;;;;;15.43;9.33;;;12.60;90.50;;;;;;1895371;74;21776;-66
2021/04/21 06:38:10;;;;;;;11.35;8.58;;;12.70;89.20;;;;;;1900654;74;21701;-66
2021/04/21 06:40:40;;;;;;;14.90;8.48;;;12.70;89.80;;;;;;1867012;75;21196;-65
2021/04/21 06:43:07;;;;;;;16.10;8.70;;;12.80;88.30;;;;;;1890903;74;21039;-65
2021/04/21 06:45:37;;;;;;;14.63;9.20;;;12.90;88.20;;;;;;1892191;74;21098;-66
2021/04/21 06:48:08;;;;;;;17.67;9.63;;;12.90;89.10;;;;;;1889850;75;21120;-66
2021/04/21 06:50:39;;;;;;;13.53;8.60;;;13.00;89.40;;;;;;1892888;74;21471;-65
2021/04/21 06:53:11;;;;;;;12.95;8.00;;;13.10;88.50;;;;;;1892353;74;21177;-66
2021/04/21 06:55:38;;;;;;;11.97;7.95;;;13.20;87.40;;;;;;1893926;74;21153;-66
2021/04/21 06:58:19;;;;;;;13.70;9.30;;;13.20;85.90;;;;;;1889150;74;21149;-65
2021/04/21 07:00:47;;;;;;;13.08;6.80;;;13.30;84.10;;;;;;1889699;75;21096;-64
2021/04/21 07:03:17;;;;;;;11.15;7.10;;;13.40;85.30;;;;;;1890765;75;21567;-64
2021/04/21 07:05:46;;;;;;;11.93;6.67;;;13.40;82.50;;;;;;1894088;74;21298;-66
2021/04/21 07:08:23;;;;;;;11.65;6.47;;;13.50;82.30;;;;;;1891083;74;21090;-65
2021/04/21 07:10:56;;;;;;;11.33;6.85;;;13.50;83.50;;;;;;1896211;74;21191;-66
2021/04/21 07:13:28;;;;;;;9.90;7.03;;;13.60;83.10;;;;;;1886688;75;21082;-64
2021/04/21 07:15:59;;;;;;;12.73;7.00;;;13.70;82.50;;;;;;1893394;74;21126;-65
2021/04/21 07:18:32;;;;;;;12.05;7.30;;;13.70;82.00;;;;;;1888783;75;21121;-64
2021/04/21 07:21:01;;;;;;;11.48;7.65;;;13.80;83.30;;;;;;1890528;74;21120;-66
2021/04/21 07:23:30;;;;;;;10.05;7.30;;;13.90;83.80;;;;;;1891331;75;21094;-66
2021/04/21 07:25:57;;;;;;;14.93;8.60;;;14.00;83.70;;;;;;1893014;75;21654;-65
2021/04/21 07:28:26;;;;;;;23.98;10.20;;;14.00;84.20;;;;;;1891822;74;21547;-66
2021/04/21 07:30:55;;;;;;;18.15;11.70;;;14.10;85.20;;;;;;1892068;74;21156;-65
2021/04/21 07:33:43;;;;;;;17.87;12.18;;;14.10;86.10;;;;;;1894032;74;21122;-65
2021/04/21 07:36:16;;;;;;;22.20;12.78;;;14.10;86.80;;;;;;1888267;74;21106;-64
2021/04/21 07:38:52;;;;;;;22.80;12.60;;;14.10;87.40;;;;;;1888391;74;21083;-63
2021/04/21 07:41:35;;;;;;;21.30;13.13;;;14.20;88.10;;;;;;1889067;75;21046;-65
2021/04/21 07:44:05;;;;;;;25.10;14.47;;;14.30;87.60;;;;;;1858435;76;21112;-64
2021/04/21 07:46:32;;;;;;;21.00;13.48;;;14.30;89.30;;;;;;1861883;76;22186;-65
2021/04/21 07:49:01;;;;;;;18.75;12.80;;;14.30;89.00;;;;;;1859627;75;21589;-63
2021/04/21 07:51:30;;;;;;;20.12;13.10;;;14.40;88.20;;;;;;1858918;76;21664;-64
2021/04/21 07:54:06;;;;;;;26.15;13.70;;;14.50;89.20;;;;;;1858501;76;21151;-64
2021/04/21 07:56:37;;;;;;;18.12;13.60;;;14.50;88.90;;;;;;1854180;76;21133;-64
2021/04/21 07:59:16;;;;;;;23.32;14.03;;;14.50;89.40;;;;;;1861211;76;21288;-64
2021/04/21 08:01:45;;;;;;;23.70;13.10;;;14.60;90.30;;;;;;1864880;76;21119;-65
2021/04/21 08:04:17;;;;;;;22.85;14.73;;;14.60;90.70;;;;;;1860439;76;21206;-65
2021/04/21 08:06:46;;;;;;;21.87;13.83;;;14.60;91.10;;;;;;1857160;76;21195;-64
2021/04/21 08:09:14;;;;;;;19.23;13.78;;;14.70;91.20;;;;;;1857698;76;21152;-66
2021/04/21 08:11:41;;;;;;;26.90;15.48;;;14.80;91.30;;;;;;1858223;76;21128;-66
2021/04/21 08:14:09;;;;;;;27.13;15.23;;;14.80;91.10;;;;;;1860268;76;21148;-67
2021/04/21 08:16:37;;;;;;;19.37;14.30;;;14.90;91.50;;;;;;1858688;76;21182;-67
2021/04/21 08:19:13;;;;;;;21.42;15.13;;;14.80;91.40;;;;;;1857132;76;21088;-67
2021/04/21 08:21:46;;;;;;;22.07;16.02;;;14.90;91.30;;;;;;1861067;76;21049;-68
2021/04/21 08:24:18;;;;;;;22.90;16.55;;;14.90;91.80;;;;;;1857851;76;21061;-66
2021/04/21 08:26:52;;;;;;;22.00;16.00;;;15.00;92.10;;;;;;1860867;76;21192;-65
2021/04/21 08:29:20;;;;;;;24.65;15.85;;;15.10;92.80;;;;;;1861656;76;21496;-65
2021/04/21 08:31:54;;;;;;;26.97;16.12;;;15.10;92.90;;;;;;1863995;76;21515;-66
2021/04/21 08:34:19;;;;;;;20.40;14.90;;;15.20;93.00;;;;;;1859140;76;21128;-67
2021/04/21 08:36:47;;;;;;;22.22;15.80;;;15.30;93.20;;;;;;1858577;76;21472;-65
2021/04/21 08:39:15;;;;;;;25.43;17.32;;;15.30;93.60;;;;;;1859339;76;21111;-64
2021/04/21 08:41:45;;;;;;;27.30;18.55;;;15.40;93.90;;;;;;1862071;76;21114;-66
2021/04/21 08:44:12;;;;;;;28.05;18.77;;;15.50;94.70;;;;;;1856929;76;21654;-65
2021/04/21 08:46:40;;;;;;;25.45;18.98;;;15.50;94.40;;;;;;1862923;76;21002;-65
2021/04/21 08:49:09;;;;;;;28.85;19.45;;;15.60;94.30;;;;;;1860196;76;21045;-66
2021/04/21 08:51:37;;;;;;;30.85;22.37;;;15.60;93.80;;;;;;1859271;76;21100;-66
2021/04/21 08:54:09;;;;;;;31.07;22.77;;;15.60;93.40;;;;;;1860123;76;21839;-66
2021/04/21 08:56:39;;;;;;;29.75;20.57;;;15.60;93.60;;;;;;1853614;76;21120;-69
2021/04/21 08:59:07;;;;;;;28.38;20.72;;;15.60;94.10;;;;;;1859956;76;21069;-66
2021/04/21 09:01:35;;;;;;;28.95;20.40;;;15.60;93.10;;;;;;1856643;76;21514;-64
2021/04/21 09:04:03;;;;;;;30.45;21.07;;;15.70;92.90;;;;;;1857223;76;21165;-67
2021/04/21 09:06:31;;;;;;;30.15;20.80;;;15.80;93.00;;;;;;1862685;76;21893;-66
2021/04/21 09:09:00;;;;;;;30.45;22.42;;;15.90;92.70;;;;;;1860670;76;21318;-65
2021/04/21 09:11:29;;;;;;;34.63;22.37;;;15.90;92.50;;;;;;1858151;76;21566;-64
2021/04/21 09:13:56;;;;;;;29.82;21.90;;;15.90;92.20;;;;;;1858716;76;21745;-66
2021/04/21 09:16:24;;;;;;;31.77;22.35;;;15.90;93.20;;;;;;1860997;76;21124;-65
2021/04/21 09:18:52;;;;;;;31.60;22.35;;;15.90;92.20;;;;;;1859106;76;21387;-64
2021/04/21 09:21:32;;;;;;;29.82;21.20;;;16.00;91.80;;;;;;1851542;77;21109;-66
2021/04/21 09:23:56;;;;;;;35.00;22.98;;;16.00;91.70;;;;;;1830550;77;21215;-65
2021/04/21 09:26:31;;;;;;;32.95;23.60;;;16.10;91.40;;;;;;1851971;75;21148;-65
2021/04/21 09:28:56;;;;;;;34.20;23.25;;;16.20;92.00;;;;;;1818129;77;21232;-65
2021/04/21 09:31:26;;;;;;;35.80;22.35;;;16.20;92.50;;;;;;1826787;77;21146;-64
2021/04/21 09:34:17;;;;;;;35.10;23.25;;;16.30;92.40;;;;;;1817594;78;21187;-64
2021/04/21 09:36:46;;;;;;;29.25;20.95;;;16.30;92.40;;;;;;1833836;77;21116;-77
2021/04/21 09:39:17;;;;;;;31.93;20.27;;;16.30;91.30;;;;;;1831128;76;21114;-65
2021/04/21 09:41:46;;;;;;;33.58;21.15;;;16.40;91.60;;;;;;1828203;76;21190;-64
2021/04/21 09:44:24;;;;;;;30.02;19.02;;;16.50;91.80;;;;;;1823611;77;21208;-65
2021/04/21 09:46:51;;;;;;;29.15;19.32;;;16.50;92.40;;;;;;1854059;76;21286;-65
2021/04/21 09:49:31;;;;;;;33.18;22.73;;;16.50;91.80;;;;;;1856675;75;21145;-64
2021/04/21 09:52:14;;;;;;;30.25;19.90;;;16.60;92.60;;;;;;1854502;75;21204;-66
2021/04/21 09:54:47;;;;;;;31.37;19.62;;;16.70;92.20;;;;;;1844792;75;21228;-66
2021/04/21 09:57:19;;;;;;;27.98;19.12;;;16.70;92.10;;;;;;1849944;77;21154;-65
2021/04/21 10:00:07;;;;;;;25.30;18.95;;;16.70;92.20;;;;;;1850655;75;21039;-66
2021/04/21 10:02:36;;;;;;;27.82;18.77;;;16.70;91.70;;;;;;1822910;77;21100;-65
2021/04/21 10:05:27;;;;;;;31.55;18.42;;;16.60;91.70;;;;;;1823757;76;21220;-65
2021/04/21 10:08:25;;;;;;;26.30;15.35;;;16.50;92.00;;;;;;1825704;77;21676;-66
2021/04/21 10:11:03;;;;;;;20.10;12.65;;;16.50;92.00;;;;;;1851606;75;21068;-66
2021/04/21 10:13:45;;;;;;;18.15;10.65;;;16.40;92.30;;;;;;1849561;77;21181;-65
2021/04/21 10:16:15;;;;;;;17.73;10.48;;;16.40;92.60;;;;;;1855156;75;21126;-66
2021/04/21 10:18:43;;;;;;;15.25;9.83;;;16.40;92.50;;;;;;1850110;75;21152;-66
2021/04/21 10:21:16;;;;;;;17.02;10.32;;;16.30;91.90;;;;;;1854965;75;21700;-65
2021/04/21 10:23:43;;;;;;;14.45;9.10;;;16.30;91.80;;;;;;1818785;77;21227;-64
2021/04/21 10:26:13;;;;;;;16.95;9.70;;;16.20;92.20;;;;;;1822537;78;21178;-65
2021/04/21 10:28:42;;;;;;;15.32;9.63;;;16.20;92.80;;;;;;1829897;77;21083;-65
2021/04/21 10:31:12;;;;;;;14.53;9.48;;;16.10;92.40;;;;;;1832653;76;21092;-66
2021/04/21 10:33:40;;;;;;;17.50;9.13;;;16.10;92.20;;;;;;1831862;77;21552;-66
2021/04/21 10:36:08;;;;;;;12.53;7.22;;;16.10;92.10;;;;;;1823586;77;21068;-66
2021/04/21 10:38:37;;;;;;;11.90;7.28;;;16.10;92.10;;;;;;1853622;77;21554;-66
2021/04/21 10:41:26;;;;;;;15.95;7.28;;;16.00;92.20;;;;;;1853165;77;21540;-66
2021/04/21 10:44:19;;;;;;;10.20;6.50;;;15.70;92.30;;;;;;1862046;76;21021;-66
2021/04/21 10:47:03;;;;;;;10.72;6.90;;;15.70;92.30;;;;;;1888790;74;21026;-66
2021/04/21 10:50:08;;;;;;;12.78;6.00;;;15.70;91.60;;;;;;1891812;75;21046;-66
2021/04/21 10:52:35;;;;;;;10.75;5.37;;;15.60;91.50;;;;;;1811771;78;21117;-67
2021/04/21 10:55:12;;;;;;;9.55;4.72;;;15.60;91.00;;;;;;1878361;75;21122;-66
2021/04/21 10:57:57;;;;;;;10.50;4.35;;;15.60;91.20;;;;;;1893092;74;21188;-67
2021/04/21 11:00:50;;;;;;;7.62;2.90;;;15.60;91.10;;;;;;1888843;74;22142;-67
2021/04/21 11:03:26;;;;;;;7.00;2.60;;;15.40;90.40;;;;;;1910568;74;21104;-67
2021/04/21 11:06:02;;;;;;;11.65;5.30;;;15.40;90.20;;;;;;1887285;75;21208;-66
2021/04/21 11:08:32;;;;;;;10.75;4.25;;;15.50;89.90;;;;;;1888635;74;21134;-68
2021/04/21 11:11:03;;;;;;;7.17;2.02;;;15.50;89.80;;;;;;1882270;74;21094;-65
2021/04/21 11:13:39;;;;;;;7.28;1.90;;;15.60;88.20;;;;;;1889413;74;21052;-68
2021/04/21 11:16:13;;;;;;;11.95;1.90;;;15.60;86.60;;;;;;1895131;74;21243;-66
2021/04/21 11:18:43;;;;;;;5.58;1.87;;;15.70;84.50;;;;;;1872922;75;21130;-67
2021/04/21 11:21:12;;;;;;;7.17;1.85;;;15.70;84.60;;;;;;1890645;74;21118;-65
2021/04/21 11:24:01;;;;;;;10.60;1.98;;;15.70;84.80;;;;;;1887172;75;21035;-66
2021/04/21 11:26:31;;;;;;;9.13;2.12;;;15.80;85.30;;;;;;1891905;74;21501;-65
2021/04/21 11:29:14;;;;;;;7.92;1.67;;;15.80;83.90;;;;;;1892088;74;21114;-66
2021/04/21 11:31:50;;;;;;;8.68;1.87;;;15.80;80.60;;;;;;1876956;72;21122;-63
2021/04/21 11:34:30;;;;;;;7.80;1.72;;;15.70;78.80;;;;;;1859049;75;21145;-64
2021/04/21 11:37:15;;;;;;;6.55;1.42;;;15.60;77.30;;;;;;1859036;75;21144;-64
2021/04/21 11:39:55;;;;;;;9.03;1.57;;;15.60;78.50;;;;;;1860972;76;21105;-65
2021/04/21 11:42:32;;;;;;;8.63;1.98;;;15.50;78.00;;;;;;1837032;76;21200;-66
2021/04/21 11:45:17;;;;;;;;;;;15.50;79.40;;;;;;1831468;77;21125;-65
2021/04/21 11:47:46;;;;;;;6.92;1.62;;;15.50;78.50;;;;;;1830005;77;20179;-65
2021/04/21 11:50:22;;;;;;;7.40;1.75;;;15.40;78.10;;;;;;1831369;77;21057;-64
2021/04/21 11:52:58;;;;;;;7.92;1.82;;;15.30;78.80;;;;;;1835273;77;21169;-64
2021/04/21 11:55:37;;;;;;;13.30;2.00;;;15.40;79.10;;;;;;1830728;77;21630;-64
2021/04/21 11:58:08;;;;;;;7.62;1.92;;;15.30;77.80;;;;;;1830834;77;21218;-64
2021/04/21 12:00:38;;;;;;;7.25;1.70;;;15.40;79.40;;;;;;1832685;77;21558;-65
2021/04/21 12:03:08;;;;;;;6.17;1.62;;;15.60;78.00;;;;;;1828940;77;21026;-65
2021/04/21 12:05:37;;;;;;;8.85;1.87;;;15.70;78.70;;;;;;1831819;77;21245;-66
2021/04/21 12:08:06;;;;;;;7.05;2.37;;;15.80;78.60;;;;;;1832626;77;21133;-63
2021/04/21 12:10:35;;;;;;;7.60;2.20;;;16.00;80.50;;;;;;1830182;77;21937;-67
2021/04/21 12:13:23;;;;;;;8.78;2.10;;;16.20;80.50;;;;;;1833336;76;21132;-65
2021/04/21 12:15:56;;;;;;;10.80;1.90;;;16.40;79.30;;;;;;1831348;77;21174;-65
2021/04/21 12:18:27;;;;;;;5.50;1.55;;;16.60;81.40;;;;;;1831730;77;21117;-65
2021/04/21 12:20:55;;;;;;;9.40;1.82;;;16.70;79.60;;;;;;1832095;76;21184;-66
2021/04/21 12:23:28;;;;;;;11.70;2.22;;;16.60;78.90;;;;;;1831962;77;21122;-63
2021/04/21 12:25:55;;;;;;;13.95;2.70;;;16.60;78.70;;;;;;1833136;77;21046;-68
2021/04/21 12:28:23;;;;;;;8.88;2.40;;;16.60;80.90;;;;;;1832375;77;21104;-65
2021/04/21 12:30:59;;;;;;;9.00;2.47;;;16.50;80.30;;;;;;1833348;76;21097;-65
2021/04/21 12:33:27;;;;;;;10.75;2.35;;;16.40;81.00;;;;;;1836994;77;21476;-64
2021/04/21 12:35:58;;;;;;;11.40;2.17;;;16.40;81.00;;;;;;1837106;77;21065;-63
2021/04/21 12:38:36;;;;;;;12.82;2.67;;;16.40;80.80;;;;;;1835432;77;21112;-65
2021/04/21 12:41:06;;;;;;;13.43;2.70;;;16.30;79.30;;;;;;1833233;77;21622;-64
2021/04/21 12:43:35;;;;;;;11.83;2.72;;;16.10;79.90;;;;;;1834232;77;21583;-65
2021/04/21 12:46:17;;;;;;;15.18;3.15;;;16.10;81.00;;;;;;1836614;77;21124;-63
2021/04/21 12:48:52;;;;;;;15.35;3.25;;;16.10;81.10;;;;;;1833260;77;21111;-65
2021/04/21 12:51:29;;;;;;;13.95;2.30;;;16.10;81.40;;;;;;1834861;77;21709;-65
2021/04/21 12:53:54;;;;;;;13.22;2.58;;;16.40;83.50;;;;;;1831969;77;21064;-65
2021/04/21 12:56:22;;;;;;;11.12;2.35;;;16.70;82.40;;;;;;1835745;77;21364;-64
2021/04/21 12:58:49;;;;;;;10.80;2.50;;;16.90;80.30;;;;;;1830869;77;21120;-64
2021/04/21 13:01:21;;;;;;;11.50;2.70;;;17.20;79.90;;;;;;1830135;77;21145;-64
2021/04/21 13:04:01;;;;;;;12.35;2.65;;;17.20;79.30;;;;;;1834358;77;21828;-64
2021/04/21 13:06:43;;;;;;;13.45;2.70;;;17.10;77.10;;;;;;1826540;77;21562;-64
2021/04/21 13:09:16;;;;;;;14.10;2.75;;;16.90;77.80;;;;;;1832590;77;21124;-63
2021/04/21 13:11:46;;;;;;;11.40;2.50;;;17.00;79.30;;;;;;1832935;77;21164;-65
2021/04/21 13:14:15;;;;;;;13.35;2.72;;;16.90;76.60;;;;;;1833627;77;21081;-66
2021/04/21 13:16:46;;;;;;;9.18;2.52;;;16.80;74.70;;;;;;1829850;77;21515;-64